createdAt,value
2023-03-14T00:00:18.545Z,9.48
2023-03-14T00:02:46.363Z,6.30
2023-03-14T00:05:13.566Z,6.32
2023-03-14T00:07:41.092Z,7.40
2023-03-14T00:10:14.493Z,5.57
2023-03-14T00:12:43.211Z,3.60
2023-03-14T00:15:11.877Z,5.47
2023-03-14T00:17:39.644Z,5.75
2023-03-14T00:20:12.083Z,3.75
2023-03-14T00:22:40.213Z,4.18
2023-03-14T00:25:10.604Z,4.70
2023-03-14T00:27:38.171Z,8.88
2023-03-14T00:30:08.702Z,4.13
2023-03-14T00:32:36.002Z,5.45
2023-03-14T00:35:04.329Z,4.90
2023-03-14T00:37:31.592Z,3.92
2023-03-14T00:39:59.550Z,4.45
2023-03-14T00:42:26.938Z,4.25
2023-03-14T00:44:54.171Z,4.13
2023-03-14T00:47:21.306Z,3.78
2023-03-14T00:49:48.748Z,4.13
2023-03-14T00:52:16.032Z,6.65
2023-03-14T00:54:43.240Z,5.20
2023-03-14T00:57:10.395Z,5.25
2023-03-14T00:59:37.528Z,4.22
2023-03-14T01:02:04.738Z,3.80
2023-03-14T01:04:32.283Z,3.35
2023-03-14T01:06:59.560Z,4.78
2023-03-14T01:09:26.711Z,3.60
2023-03-14T01:11:53.878Z,4.22
2023-03-14T01:14:21.091Z,3.55
2023-03-14T01:16:48.202Z,2.80
2023-03-14T01:19:15.435Z,6.82
2023-03-14T01:21:42.705Z,5.72
2023-03-14T01:24:12.752Z,4.95
2023-03-14T01:26:40.000Z,6.90
2023-03-14T01:29:07.196Z,2.72
2023-03-14T01:31:34.412Z,4.78
2023-03-14T01:34:01.654Z,3.40
2023-03-14T01:36:30.484Z,8.82
2023-03-14T01:38:58.895Z,4.50
2023-03-14T01:41:27.200Z,3.33
2023-03-14T01:43:54.863Z,5.43
2023-03-14T01:46:29.106Z,6.88
2023-03-14T01:49:08.088Z,3.00
2023-03-14T01:51:46.167Z,5.47
2023-03-14T01:54:25.761Z,3.90
2023-03-14T01:57:05.795Z,7.28
2023-03-14T01:59:35.203Z,5.63
2023-03-14T02:02:03.764Z,4.07
2023-03-14T02:04:35.860Z,4.88
2023-03-14T02:07:31.536Z,2.73
2023-03-14T02:10:00.085Z,5.15
2023-03-14T02:12:28.909Z,7.93
2023-03-14T02:14:56.085Z,7.35
2023-03-14T02:17:25.177Z,5.22
2023-03-14T02:20:13.000Z,3.38
2023-03-14T02:22:45.393Z,4.75
2023-03-14T02:25:32.143Z,4.35
2023-03-14T02:28:00.801Z,4.28
2023-03-14T02:30:31.840Z,3.47
2023-03-14T02:33:11.150Z,3.80
2023-03-14T02:35:52.873Z,4.43
2023-03-14T02:39:12.786Z,3.78
2023-03-14T02:41:40.000Z,2.97
2023-03-14T02:44:07.235Z,5.47
2023-03-14T02:46:34.560Z,2.35
2023-03-14T02:49:11.701Z,3.75
2023-03-14T02:51:41.352Z,6.32
2023-03-14T02:54:09.086Z,3.83
2023-03-14T02:56:36.225Z,4.97
2023-03-14T02:59:05.412Z,3.65
2023-03-14T03:01:32.697Z,5.68
2023-03-14T03:03:59.963Z,3.08
2023-03-14T03:06:27.292Z,4.85
2023-03-14T03:08:54.506Z,2.88
2023-03-14T03:11:21.830Z,3.92
2023-03-14T03:13:48.958Z,4.97
2023-03-14T03:16:16.353Z,5.35
2023-03-14T03:18:43.608Z,4.20
2023-03-14T03:21:10.745Z,2.58
2023-03-14T03:23:37.939Z,4.65
2023-03-14T03:26:05.621Z,5.05
2023-03-14T03:28:32.782Z,4.03
2023-03-14T03:30:59.955Z,6.55
2023-03-14T03:33:27.257Z,3.97
2023-03-14T03:35:54.673Z,5.13
2023-03-14T03:38:21.966Z,5.82
2023-03-14T03:40:49.166Z,4.13
2023-03-14T03:43:16.359Z,5.88
2023-03-14T03:45:43.730Z,5.95
2023-03-14T03:48:11.021Z,3.20
2023-03-14T03:50:38.202Z,4.40
2023-03-14T03:53:05.358Z,5.65
2023-03-14T03:55:32.555Z,3.67
2023-03-14T03:57:59.737Z,4.38
2023-03-14T04:00:26.911Z,2.70
2023-03-14T04:02:54.243Z,4.03
2023-03-14T04:05:21.691Z,4.43
2023-03-14T04:07:48.903Z,4.28
2023-03-14T04:10:16.186Z,4.78
2023-03-14T04:12:43.472Z,4.57
2023-03-14T04:15:11.261Z,4.30
2023-03-14T04:17:38.413Z,4.20
2023-03-14T04:20:06.516Z,11.88
2023-03-14T04:22:33.679Z,4.88
2023-03-14T04:25:00.935Z,4.32
2023-03-14T04:27:28.087Z,5.40
2023-03-14T04:29:55.254Z,5.55
2023-03-14T04:32:22.504Z,5.57
2023-03-14T04:34:49.791Z,6.65
2023-03-14T04:37:17.038Z,5.55
2023-03-14T04:39:44.293Z,5.40
2023-03-14T04:42:11.440Z,6.07
2023-03-14T04:44:38.629Z,5.18
2023-03-14T04:47:05.814Z,6.88
2023-03-14T04:49:33.004Z,4.20
2023-03-14T04:52:00.211Z,5.78
2023-03-14T04:54:27.396Z,6.53
2023-03-14T04:56:54.650Z,5.95
2023-03-14T04:59:21.798Z,4.63
2023-03-14T05:01:50.902Z,6.60
2023-03-14T05:04:18.147Z,4.05
2023-03-14T05:06:45.347Z,2.13
2023-03-14T05:09:12.538Z,4.13
2023-03-14T05:11:39.671Z,4.65
2023-03-14T05:14:06.812Z,3.17
2023-03-14T05:16:34.359Z,8.98
2023-03-14T05:19:02.556Z,7.90
2023-03-14T05:21:31.996Z,3.65
2023-03-14T05:23:59.178Z,1.70
2023-03-14T05:26:26.334Z,3.58
2023-03-14T05:28:53.514Z,5.03
2023-03-14T05:31:20.799Z,4.50
2023-03-14T05:33:47.927Z,6.40
2023-03-14T05:36:15.135Z,7.13
2023-03-14T05:38:42.278Z,2.13
2023-03-14T05:41:09.680Z,1.88
2023-03-14T05:43:36.848Z,1.80
2023-03-14T05:46:04.338Z,2.15
2023-03-14T05:48:31.491Z,2.38
2023-03-14T05:51:00.269Z,1.35
2023-03-14T05:53:27.617Z,3.58
2023-03-14T05:55:57.886Z,6.85
2023-03-14T05:58:25.321Z,3.60
2023-03-14T06:00:52.497Z,4.50
2023-03-14T06:03:19.735Z,4.60
2023-03-14T06:05:46.931Z,4.78
2023-03-14T06:08:15.717Z,3.92
2023-03-14T06:10:43.993Z,3.97
2023-03-14T06:13:11.135Z,2.63
2023-03-14T06:15:38.319Z,4.05
2023-03-14T06:18:05.549Z,4.75
2023-03-14T06:20:34.034Z,6.43
2023-03-14T06:23:01.191Z,8.88
2023-03-14T06:25:28.385Z,9.05
2023-03-14T06:27:55.508Z,7.50
2023-03-14T06:30:22.683Z,4.10
2023-03-14T06:32:49.948Z,8.15
2023-03-14T06:35:17.427Z,5.43
2023-03-14T06:37:44.637Z,6.57
2023-03-14T06:40:18.729Z,5.15
2023-03-14T06:42:46.382Z,5.15
2023-03-14T06:45:14.447Z,5.28
2023-03-14T06:47:41.553Z,5.82
2023-03-14T06:50:10.704Z,6.47
2023-03-14T06:52:38.716Z,5.53
2023-03-14T06:55:06.742Z,6.18
2023-03-14T06:57:33.893Z,6.32
2023-03-14T07:00:01.031Z,3.75
2023-03-14T07:02:41.977Z,5.85
2023-03-14T07:05:11.370Z,5.32
2023-03-14T07:07:38.635Z,4.88
2023-03-14T07:10:06.517Z,7.60
2023-03-14T07:12:33.691Z,11.10
2023-03-14T07:15:11.960Z,4.85
2023-03-14T07:17:44.523Z,5.90
2023-03-14T07:20:11.983Z,8.57
2023-03-14T07:22:39.100Z,3.80
2023-03-14T07:25:06.890Z,2.95
2023-03-14T07:27:34.053Z,4.38
2023-03-14T07:30:01.194Z,4.47
2023-03-14T07:32:28.464Z,4.53
2023-03-14T07:34:55.578Z,4.03
2023-03-14T07:37:22.734Z,11.30
2023-03-14T07:39:50.001Z,8.43
2023-03-14T07:42:17.194Z,5.53
2023-03-14T07:44:44.343Z,4.85
2023-03-14T07:47:12.573Z,3.40
2023-03-14T07:49:39.821Z,3.35
2023-03-14T07:52:06.938Z,4.18
2023-03-14T07:54:34.098Z,5.28
2023-03-14T07:57:01.740Z,3.40
2023-03-14T07:59:29.012Z,3.90
2023-03-14T08:01:56.418Z,5.07
2023-03-14T08:04:23.570Z,2.47
2023-03-14T08:06:50.720Z,1.05
2023-03-14T08:09:17.849Z,2.92
2023-03-14T08:11:44.992Z,2.25
2023-03-14T08:14:12.289Z,2.15
2023-03-14T08:16:39.412Z,2.92
2023-03-14T08:19:06.568Z,4.07
2023-03-14T08:21:33.761Z,4.85
2023-03-14T08:24:01.637Z,5.38
2023-03-14T08:26:29.092Z,3.55
2023-03-14T08:28:56.210Z,2.85
2023-03-14T08:31:23.534Z,12.43
2023-03-14T08:33:53.016Z,7.70
2023-03-14T08:36:23.823Z,2.30
2023-03-14T08:38:51.278Z,4.43
2023-03-14T08:41:18.526Z,7.45
2023-03-14T08:43:46.016Z,7.40
2023-03-14T08:46:13.168Z,6.90
2023-03-14T08:48:40.330Z,4.32
2023-03-14T08:51:14.862Z,3.95
2023-03-14T08:53:42.841Z,4.70
2023-03-14T08:56:11.240Z,6.60
2023-03-14T08:58:39.017Z,5.13
2023-03-14T09:01:08.845Z,6.00
2023-03-14T09:03:36.406Z,6.70
2023-03-14T09:06:06.138Z,4.25
2023-03-14T09:08:34.391Z,6.78
2023-03-14T09:11:01.740Z,4.97
2023-03-14T09:13:29.151Z,7.70
2023-03-14T09:15:58.667Z,4.07
2023-03-14T09:18:25.901Z,5.63
2023-03-14T09:20:53.101Z,6.30
2023-03-14T09:23:20.273Z,3.50
2023-03-14T09:25:47.484Z,3.78
2023-03-14T09:28:14.596Z,5.65
2023-03-14T09:30:41.785Z,4.53
2023-03-14T09:33:09.163Z,6.43
2023-03-14T09:35:36.351Z,4.93
2023-03-14T09:38:03.580Z,6.70
2023-03-14T09:40:36.069Z,4.53
2023-03-14T09:43:04.176Z,3.38
2023-03-14T09:45:39.973Z,6.00
2023-03-14T09:48:16.766Z,3.38
2023-03-14T09:50:56.304Z,2.88
2023-03-14T09:53:42.308Z,3.50
2023-03-14T09:56:19.885Z,4.05
2023-03-14T09:58:56.618Z,4.13
2023-03-14T10:01:32.649Z,1.88
2023-03-14T10:04:14.419Z,3.20
2023-03-14T10:06:41.716Z,4.55
2023-03-14T10:09:26.101Z,4.20
2023-03-14T10:11:57.871Z,2.50
2023-03-14T10:14:38.856Z,5.25
2023-03-14T10:17:12.888Z,4.88
2023-03-14T10:20:00.621Z,4.82
2023-03-14T10:22:32.294Z,2.75
2023-03-14T10:25:26.874Z,3.55
2023-03-14T10:27:54.008Z,2.50
2023-03-14T10:30:46.521Z,3.15
2023-03-14T10:33:19.493Z,5.50
2023-03-14T10:40:52.446Z,3.38
2023-03-14T10:43:27.733Z,3.72
2023-03-14T10:46:03.699Z,8.40
2023-03-14T10:48:41.991Z,5.65
2023-03-14T10:51:18.166Z,2.60
2023-03-14T10:54:02.016Z,2.97
2023-03-14T10:56:37.308Z,2.75
2023-03-14T10:59:14.061Z,1.38
2023-03-14T11:02:31.631Z,1.33
2023-03-14T11:05:28.223Z,1.50
2023-03-14T11:08:03.664Z,1.85
2023-03-14T11:10:46.299Z,1.15
2023-03-14T11:13:32.967Z,1.73
2023-03-14T11:16:17.860Z,2.17
2023-03-14T11:19:00.970Z,3.60
2023-03-14T11:21:53.804Z,2.92
2023-03-14T11:24:50.901Z,1.27
2023-03-14T11:27:44.466Z,1.98
2023-03-14T11:30:35.140Z,2.15
2023-03-14T11:33:14.865Z,1.00
2023-03-14T11:35:57.219Z,0.90
2023-03-14T11:38:47.339Z,1.17
2023-03-14T11:41:46.374Z,0.82
2023-03-14T11:44:38.790Z,2.75
2023-03-14T11:47:20.617Z,1.38
2023-03-14T11:50:22.952Z,4.82
2023-03-14T11:53:07.189Z,1.50
2023-03-14T11:55:39.224Z,1.00
2023-03-14T11:58:28.269Z,1.13
2023-03-14T12:00:58.878Z,2.97
2023-03-14T12:03:53.997Z,2.15
2023-03-14T12:06:51.490Z,7.03
2023-03-14T12:09:23.337Z,1.85
2023-03-14T12:12:04.786Z,1.83
2023-03-14T12:14:36.704Z,1.58
2023-03-14T12:17:34.046Z,1.92
2023-03-14T12:20:20.513Z,1.17
2023-03-14T12:22:52.558Z,3.40
2023-03-14T12:25:28.291Z,1.27
2023-03-14T12:27:55.320Z,1.23
2023-03-14T12:30:37.626Z,1.45
2023-03-14T12:33:10.839Z,0.60
2023-03-14T12:35:50.553Z,1.05
2023-03-14T12:38:50.225Z,2.42
2023-03-14T12:41:41.574Z,1.33
2023-03-14T12:44:30.249Z,1.65
2023-03-14T12:47:33.607Z,1.20
2023-03-14T12:50:15.382Z,1.45
2023-03-14T12:53:35.227Z,0.98
2023-03-14T12:56:33.879Z,2.30
2023-03-14T12:59:30.583Z,4.03
2023-03-14T13:02:06.834Z,0.60
2023-03-14T13:04:51.671Z,2.38
2023-03-14T13:07:36.656Z,1.30
2023-03-14T13:10:11.321Z,2.42
2023-03-14T13:13:15.218Z,1.65
2023-03-14T13:15:46.292Z,0.82
2023-03-14T13:18:20.444Z,1.50
2023-03-14T13:20:55.410Z,2.03
2023-03-14T13:23:33.217Z,2.17
2023-03-14T13:26:02.351Z,1.80
2023-03-14T13:28:32.919Z,0.95
2023-03-14T13:31:05.850Z,0.90
2023-03-14T13:33:35.531Z,1.30
2023-03-14T13:36:06.580Z,2.67
2023-03-14T13:38:37.301Z,3.97
2023-03-14T13:41:09.138Z,5.60
2023-03-14T13:43:45.290Z,3.85
2023-03-14T13:46:21.475Z,5.20
2023-03-14T13:48:54.186Z,3.17
2023-03-14T13:51:23.689Z,7.88
2023-03-14T13:53:56.344Z,6.82
2023-03-14T13:56:27.733Z,8.65
2023-03-14T13:58:55.659Z,5.30
2023-03-14T14:01:36.720Z,8.00
2023-03-14T14:04:15.026Z,7.10
2023-03-14T14:06:59.152Z,5.22
2023-03-14T14:09:40.117Z,9.25
2023-03-14T14:12:19.047Z,8.48
2023-03-14T14:15:37.890Z,7.07
2023-03-14T14:18:09.363Z,7.10
2023-03-14T14:20:47.795Z,10.27
2023-03-14T14:23:26.115Z,11.75
2023-03-14T14:25:55.585Z,6.88
2023-03-14T14:28:36.682Z,10.63
2023-03-14T14:31:26.004Z,9.27
2023-03-14T14:34:02.994Z,9.55
2023-03-14T14:36:42.483Z,8.52
2023-03-14T14:39:28.216Z,11.25
2023-03-14T14:41:55.683Z,11.27
2023-03-14T14:44:33.299Z,10.57
2023-03-14T14:47:04.076Z,10.40
2023-03-14T14:49:34.143Z,12.20
2023-03-14T14:52:10.683Z,15.70
2023-03-14T14:54:55.522Z,18.05
2023-03-14T14:57:31.191Z,14.40
2023-03-14T15:00:08.096Z,21.10
2023-03-14T15:02:47.836Z,14.98
2023-03-14T15:05:21.928Z,23.55
2023-03-14T15:07:49.100Z,18.55
2023-03-14T15:10:21.320Z,20.30
2023-03-14T15:12:48.658Z,20.88
2023-03-14T15:15:18.492Z,17.75
2023-03-14T15:17:45.723Z,20.85
2023-03-14T15:20:16.367Z,15.82
2023-03-14T15:22:43.663Z,20.67
2023-03-14T15:25:31.494Z,18.75
2023-03-14T15:27:58.911Z,13.43
2023-03-14T15:30:26.071Z,24.48
2023-03-14T15:32:53.354Z,15.13
2023-03-14T15:35:20.560Z,16.17
2023-03-14T15:37:47.689Z,18.85
2023-03-14T15:40:16.148Z,13.85
2023-03-14T15:42:43.697Z,13.50
2023-03-14T15:45:11.114Z,17.45
2023-03-14T15:47:38.343Z,18.27
2023-03-14T15:50:06.043Z,13.82
2023-03-14T15:52:33.195Z,18.58
2023-03-14T15:55:01.342Z,17.05
2023-03-14T15:57:28.533Z,16.35
2023-03-14T15:59:55.869Z,15.77
2023-03-14T16:02:23.105Z,20.95
2023-03-14T16:04:50.279Z,25.08
2023-03-14T16:07:17.442Z,16.25
2023-03-14T16:09:44.574Z,17.05
2023-03-14T16:12:11.706Z,12.20
2023-03-14T16:14:43.511Z,15.32
2023-03-14T16:17:13.727Z,18.13
2023-03-14T16:19:40.880Z,12.70
2023-03-14T16:22:08.182Z,13.68
2023-03-14T16:24:35.281Z,13.82
2023-03-14T16:27:02.546Z,9.35
2023-03-14T16:29:31.100Z,17.30
2023-03-14T16:31:58.666Z,16.70
2023-03-14T16:34:25.863Z,12.98
2023-03-14T16:36:53.035Z,11.43
2023-03-14T16:39:20.481Z,15.07
2023-03-14T16:41:47.709Z,14.15
2023-03-14T16:44:15.112Z,12.65
2023-03-14T16:46:42.370Z,15.13
2023-03-14T16:49:10.455Z,18.15
2023-03-14T16:51:37.606Z,8.27
2023-03-14T16:54:04.825Z,11.20
2023-03-14T16:56:32.051Z,14.23
2023-03-14T16:58:59.488Z,12.50
2023-03-14T17:01:26.733Z,12.25
2023-03-14T17:03:54.236Z,13.38
2023-03-14T17:06:26.515Z,14.00
2023-03-14T17:08:57.187Z,8.97
2023-03-14T17:11:24.735Z,10.77
2023-03-14T17:13:52.068Z,17.48
2023-03-14T17:16:19.525Z,10.50
2023-03-14T17:18:46.880Z,11.75
2023-03-14T17:21:14.302Z,11.00
2023-03-14T17:23:41.743Z,11.98
2023-03-14T17:26:09.530Z,11.80
2023-03-14T17:28:36.705Z,17.38
2023-03-14T17:31:16.675Z,8.13
2023-03-14T17:33:45.313Z,10.70
2023-03-14T17:36:13.582Z,18.70
2023-03-14T17:38:41.641Z,12.10
2023-03-14T17:41:12.216Z,13.35
2023-03-14T17:43:41.951Z,17.33
2023-03-14T17:46:14.610Z,14.32
2023-03-14T17:48:44.696Z,9.30
2023-03-14T17:51:13.380Z,11.93
2023-03-14T17:53:40.983Z,16.00
2023-03-14T17:56:08.936Z,11.82
2023-03-14T17:58:37.811Z,12.73
2023-03-14T18:01:19.775Z,10.45
2023-03-14T18:03:47.247Z,14.82
2023-03-14T18:06:17.479Z,14.85
2023-03-14T18:08:44.944Z,12.75
2023-03-14T18:11:13.162Z,14.57
2023-03-14T18:13:41.506Z,14.70
2023-03-14T18:16:14.008Z,19.02
2023-03-14T18:18:45.423Z,15.88
2023-03-14T18:21:13.605Z,12.55
2023-03-14T18:23:41.404Z,14.25
2023-03-14T18:26:08.862Z,11.65
2023-03-14T18:28:36.054Z,11.60
2023-03-14T18:31:08.786Z,12.73
2023-03-14T18:33:38.296Z,17.52
2023-03-14T18:36:06.372Z,14.13
2023-03-14T18:38:33.838Z,13.35
2023-03-14T18:41:06.378Z,19.23
2023-03-14T18:43:34.987Z,8.68
2023-03-14T18:46:02.504Z,13.95
2023-03-14T18:48:30.293Z,15.25
2023-03-14T18:50:59.519Z,15.25
2023-03-14T18:53:32.356Z,16.65
2023-03-14T18:56:01.105Z,12.68
2023-03-14T18:58:29.042Z,13.65
2023-03-14T19:01:03.353Z,9.27
2023-03-14T19:03:34.476Z,20.70
2023-03-14T19:06:08.269Z,13.95
2023-03-14T19:08:38.122Z,15.73
2023-03-14T19:11:08.980Z,16.90
2023-03-14T19:13:36.225Z,14.77
2023-03-14T19:16:05.047Z,16.98
2023-03-14T19:18:32.566Z,15.77
2023-03-14T19:21:03.831Z,11.95
2023-03-14T19:23:37.043Z,12.68
2023-03-14T19:26:05.384Z,8.93
2023-03-14T19:28:33.303Z,16.23
2023-03-14T19:31:04.185Z,15.75
2023-03-14T19:33:32.288Z,16.85
2023-03-14T19:36:00.085Z,19.08
2023-03-14T19:38:27.299Z,11.60
2023-03-14T19:40:59.230Z,13.32
2023-03-14T19:43:27.404Z,13.98
2023-03-14T19:45:55.543Z,17.15
2023-03-14T19:48:30.451Z,11.95
2023-03-14T19:51:00.296Z,8.32
2023-03-14T19:53:27.477Z,18.30
2023-03-14T19:55:54.696Z,12.43
2023-03-14T19:58:23.568Z,13.80
2023-03-14T20:00:51.363Z,12.38
2023-03-14T20:03:18.671Z,9.15
2023-03-14T20:05:45.886Z,12.18
2023-03-14T20:08:13.322Z,10.98
2023-03-14T20:10:40.493Z,11.10
2023-03-14T20:13:19.191Z,11.00
2023-03-14T20:15:48.503Z,21.92
2023-03-14T20:18:15.801Z,12.32
2023-03-14T20:20:42.978Z,15.10
2023-03-14T20:23:10.408Z,13.77
2023-03-14T20:25:38.085Z,13.13
2023-03-14T20:28:05.555Z,15.20
2023-03-14T20:30:33.393Z,17.73
2023-03-14T20:33:04.355Z,20.40
2023-03-14T20:35:31.718Z,9.98
2023-03-14T20:37:58.918Z,15.40
2023-03-14T20:40:30.364Z,18.45
2023-03-14T20:42:57.511Z,9.43
2023-03-14T20:45:24.742Z,9.20
2023-03-14T20:47:51.944Z,15.25
2023-03-14T20:50:19.196Z,11.63
2023-03-14T20:52:46.407Z,8.30
2023-03-14T20:55:13.587Z,10.00
2023-03-14T20:57:40.954Z,15.77
2023-03-14T21:00:08.974Z,15.55
2023-03-14T21:02:36.580Z,13.75
2023-03-14T21:05:06.028Z,11.27
2023-03-14T21:07:41.300Z,11.50
2023-03-14T21:10:12.075Z,15.20
2023-03-14T21:12:39.562Z,13.23
2023-03-14T21:15:08.603Z,22.83
2023-03-14T21:17:36.613Z,19.20
2023-03-14T21:20:06.390Z,16.58
2023-03-14T21:22:33.580Z,17.67
2023-03-14T21:25:00.746Z,13.25
2023-03-14T21:27:28.258Z,18.98
2023-03-14T21:29:55.410Z,13.23
2023-03-14T21:32:23.065Z,10.65
2023-03-14T21:34:51.217Z,14.32
2023-03-14T21:37:18.454Z,12.23
2023-03-14T21:39:45.619Z,11.68
2023-03-14T21:42:13.075Z,12.80
2023-03-14T21:44:41.315Z,15.20
2023-03-14T21:47:09.724Z,25.13
2023-03-14T21:49:39.977Z,20.63
2023-03-14T21:52:10.934Z,13.90
2023-03-14T21:54:38.320Z,19.17
2023-03-14T21:57:07.369Z,17.50
2023-03-14T21:59:37.266Z,15.05
2023-03-14T22:02:08.293Z,14.57
2023-03-14T22:04:35.549Z,17.55
2023-03-14T22:07:05.105Z,13.57
2023-03-14T22:09:33.912Z,13.77
2023-03-14T22:12:01.366Z,19.75
2023-03-14T22:14:28.533Z,11.80
2023-03-14T22:16:56.118Z,13.68
2023-03-14T22:19:23.261Z,19.40
2023-03-14T22:21:50.425Z,12.40
2023-03-14T22:24:17.586Z,16.63
2023-03-14T22:26:45.168Z,16.50
2023-03-14T22:29:12.612Z,18.38
2023-03-14T22:31:39.740Z,12.57
2023-03-14T22:34:06.900Z,18.60
2023-03-14T22:36:34.122Z,17.27
2023-03-14T22:39:01.268Z,16.00
2023-03-14T22:41:28.446Z,12.18
2023-03-14T22:43:55.637Z,19.50
2023-03-14T22:46:22.789Z,15.18
2023-03-14T22:48:49.923Z,16.35
2023-03-14T22:51:17.202Z,12.90
2023-03-14T22:53:44.861Z,18.45
2023-03-14T22:56:12.831Z,10.95
2023-03-14T22:58:40.018Z,16.98
2023-03-14T23:01:07.414Z,11.98
2023-03-14T23:03:34.776Z,11.50
2023-03-14T23:06:03.987Z,19.42
2023-03-14T23:08:33.087Z,19.65
2023-03-14T23:11:05.958Z,15.95
2023-03-14T23:16:02.448Z,21.35
2023-03-14T23:18:29.677Z,17.50
2023-03-14T23:21:19.797Z,16.10
2023-03-14T23:23:48.003Z,14.85
2023-03-14T23:26:23.515Z,15.30
2023-03-14T23:28:54.270Z,16.10
2023-03-14T23:31:22.550Z,15.20
2023-03-14T23:33:50.585Z,14.07
2023-03-14T23:36:18.556Z,12.30
2023-03-14T23:38:46.774Z,12.40
2023-03-14T23:41:14.975Z,15.73
2023-03-14T23:43:45.150Z,15.65
2023-03-14T23:46:12.727Z,11.68
2023-03-14T23:48:40.207Z,16.75
2023-03-14T23:51:10.690Z,15.77
2023-03-14T23:53:37.894Z,12.70
2023-03-14T23:56:05.763Z,9.15
2023-03-14T23:58:35.761Z,16.35
